createdAt,value
2023-03-28T00:00:41.524Z,9.47
2023-03-28T00:03:09.415Z,17.70
2023-03-28T00:05:40.978Z,13.57
2023-03-28T00:08:09.263Z,10.70
2023-03-28T00:10:37.168Z,7.03
2023-03-28T00:13:05.007Z,10.17
2023-03-28T00:15:32.859Z,16.27
2023-03-28T00:18:01.378Z,10.73
2023-03-28T00:20:30.125Z,11.07
2023-03-28T00:22:59.437Z,11.30
2023-03-28T00:25:27.326Z,8.60
2023-03-28T00:27:55.186Z,9.10
2023-03-28T00:30:23.155Z,9.93
2023-03-28T00:32:51.129Z,10.70
2023-03-28T00:35:19.044Z,11.93
2023-03-28T00:37:51.368Z,10.03
2023-03-28T00:40:20.700Z,7.70
2023-03-28T00:42:48.652Z,12.07
2023-03-28T00:45:16.575Z,14.67
2023-03-28T00:47:45.347Z,13.33
2023-03-28T00:50:16.362Z,10.47
2023-03-28T00:52:46.391Z,18.33
2023-03-28T00:55:16.846Z,9.53
2023-03-28T00:57:46.149Z,13.83
2023-03-28T01:00:18.859Z,9.50
2023-03-28T01:02:51.228Z,11.47
2023-03-28T01:05:20.186Z,14.93
2023-03-28T01:07:49.893Z,12.93
2023-03-28T01:10:17.721Z,14.93
2023-03-28T01:12:46.943Z,9.70
2023-03-28T01:15:14.816Z,14.33
2023-03-28T01:17:42.744Z,15.80
2023-03-28T01:20:32.593Z,14.43
2023-03-28T01:23:27.652Z,14.53
2023-03-28T01:26:18.988Z,17.53
2023-03-28T01:29:05.401Z,14.03
2023-03-28T01:31:54.732Z,16.43
2023-03-28T01:34:44.820Z,14.67
2023-03-28T01:37:23.680Z,15.10
2023-03-28T01:40:11.036Z,13.47
2023-03-28T01:42:43.418Z,11.20
2023-03-28T01:45:14.803Z,16.10
2023-03-28T01:47:43.132Z,17.43
2023-03-28T01:50:13.778Z,18.73
2023-03-28T01:52:46.229Z,17.50
2023-03-28T01:55:17.199Z,18.90
2023-03-28T01:57:47.184Z,14.80
2023-03-28T02:00:19.712Z,14.97
2023-03-28T02:02:51.016Z,21.40
2023-03-28T02:05:19.614Z,22.67
2023-03-28T02:07:49.381Z,16.70
2023-03-28T02:10:18.090Z,16.50
2023-03-28T02:12:48.427Z,18.27
2023-03-28T02:15:17.125Z,20.70
2023-03-28T02:17:47.409Z,20.37
2023-03-28T02:20:17.102Z,19.77
2023-03-28T02:22:47.490Z,14.67
2023-03-28T02:25:16.961Z,20.70
2023-03-28T02:27:44.803Z,19.83
2023-03-28T02:30:13.933Z,21.27
2023-03-28T02:32:44.149Z,17.37
2023-03-28T02:35:12.082Z,17.67
2023-03-28T02:37:43.886Z,12.40
2023-03-28T02:40:37.522Z,16.90
2023-03-28T02:43:21.039Z,17.73
2023-03-28T02:45:59.788Z,20.17
2023-03-28T02:48:35.691Z,14.57
2023-03-28T02:51:08.878Z,14.13
2023-03-28T02:53:44.620Z,27.40
2023-03-28T02:56:16.062Z,17.10
2023-03-28T02:58:47.408Z,13.50
2023-03-28T03:01:16.922Z,22.20
2023-03-28T03:03:45.879Z,17.07
2023-03-28T03:06:13.833Z,13.97
2023-03-28T03:08:41.708Z,10.97
2023-03-28T03:11:09.676Z,14.53
2023-03-28T03:13:38.980Z,15.37
2023-03-28T03:16:07.741Z,17.53
2023-03-28T03:18:36.993Z,16.03
2023-03-28T03:21:05.405Z,14.60
2023-03-28T03:23:33.292Z,18.83
2023-03-28T03:26:01.987Z,13.47
2023-03-28T03:28:30.134Z,18.23
2023-03-28T03:30:59.458Z,12.60
2023-03-28T03:33:27.407Z,11.33
2023-03-28T03:35:55.355Z,13.27
2023-03-28T03:38:23.311Z,9.60
2023-03-28T03:40:51.213Z,11.43
2023-03-28T03:43:19.071Z,10.77
2023-03-28T03:45:47.042Z,16.40
2023-03-28T03:48:16.282Z,8.93
2023-03-28T03:50:44.198Z,7.63
2023-03-28T03:53:12.084Z,10.17
2023-03-28T03:55:40.344Z,9.97
2023-03-28T03:58:08.232Z,8.70
2023-03-28T04:00:37.673Z,12.57
2023-03-28T04:03:05.576Z,7.37
2023-03-28T04:05:34.975Z,7.63
2023-03-28T04:08:02.834Z,10.93
2023-03-28T04:10:30.780Z,10.53
2023-03-28T04:12:58.660Z,12.07
2023-03-28T04:15:26.569Z,8.97
2023-03-28T04:17:58.790Z,9.10
2023-03-28T04:20:29.741Z,8.40
2023-03-28T04:23:00.310Z,6.93
2023-03-28T04:25:29.952Z,5.17
2023-03-28T04:28:01.858Z,6.77
2023-03-28T04:30:29.877Z,6.23
2023-03-28T04:32:59.210Z,5.83
2023-03-28T04:35:29.774Z,9.17
2023-03-28T04:37:59.157Z,7.33
2023-03-28T04:40:29.308Z,7.63
2023-03-28T04:42:57.243Z,8.73
2023-03-28T04:45:26.495Z,7.77
2023-03-28T04:47:54.741Z,7.50
2023-03-28T04:50:22.651Z,9.40
2023-03-28T04:52:50.530Z,10.67
2023-03-28T04:55:20.299Z,9.17
2023-03-28T04:57:48.171Z,7.50
2023-03-28T05:00:17.106Z,7.50
2023-03-28T05:02:45.595Z,6.53
2023-03-28T05:05:13.569Z,8.87
2023-03-28T05:07:42.407Z,8.80
2023-03-28T05:10:13.486Z,7.40
2023-03-28T05:12:43.410Z,6.83
2023-03-28T05:15:11.910Z,7.23
2023-03-28T05:17:50.163Z,8.37
2023-03-28T05:20:18.781Z,7.13
2023-03-28T05:22:47.311Z,7.97
2023-03-28T05:25:15.172Z,6.97
2023-03-28T05:27:44.758Z,6.30
2023-03-28T05:30:13.251Z,6.87
2023-03-28T05:32:41.164Z,7.03
2023-03-28T05:35:12.855Z,5.40
2023-03-28T05:37:43.017Z,7.07
2023-03-28T05:40:13.166Z,8.47
2023-03-28T05:42:41.131Z,12.03
2023-03-28T05:45:12.551Z,8.30
2023-03-28T05:47:40.635Z,8.27
2023-03-28T05:50:11.426Z,7.73
2023-03-28T05:52:39.355Z,6.90
2023-03-28T05:55:08.149Z,8.03
2023-03-28T05:57:36.355Z,9.73
2023-03-28T06:00:13.934Z,5.63
2023-03-28T06:02:43.539Z,6.60
2023-03-28T06:05:11.702Z,8.23
2023-03-28T06:07:42.861Z,6.17
2023-03-28T06:10:12.469Z,6.63
2023-03-28T06:12:43.539Z,7.43
2023-03-28T06:15:12.333Z,4.40
2023-03-28T06:17:40.337Z,7.47
2023-03-28T06:20:11.011Z,9.03
2023-03-28T06:22:38.972Z,7.00
2023-03-28T06:25:07.503Z,6.00
2023-03-28T06:27:35.604Z,5.93
2023-03-28T06:30:04.656Z,4.33
2023-03-28T06:32:32.794Z,3.40
2023-03-28T06:35:00.747Z,9.93
2023-03-28T06:37:30.038Z,1.87
2023-03-28T06:39:57.877Z,5.00
2023-03-28T06:42:37.344Z,5.43
2023-03-28T06:45:06.145Z,9.90
2023-03-28T06:47:34.190Z,4.87
2023-03-28T06:50:02.227Z,3.60
2023-03-28T06:52:34.409Z,3.60
2023-03-28T06:55:02.332Z,2.27
2023-03-28T06:57:30.389Z,4.77
2023-03-28T06:59:58.287Z,9.30
2023-03-28T07:02:26.349Z,3.93
2023-03-28T07:04:55.515Z,10.43
2023-03-28T07:07:23.462Z,2.13
2023-03-28T07:09:54.817Z,6.53
2023-03-28T07:12:22.791Z,2.23
2023-03-28T07:14:51.466Z,3.17
2023-03-28T07:17:20.029Z,1.60
2023-03-28T07:19:51.189Z,3.90
2023-03-28T07:22:19.317Z,3.60
2023-03-28T07:24:47.375Z,6.67
2023-03-28T07:27:17.274Z,4.27
2023-03-28T07:29:45.304Z,4.57
2023-03-28T07:32:15.612Z,3.60
2023-03-28T07:34:44.983Z,4.47
2023-03-28T07:37:13.072Z,5.23
2023-03-28T07:39:43.763Z,8.23
2023-03-28T07:42:12.521Z,6.83
2023-03-28T07:44:42.465Z,2.40
2023-03-28T07:47:10.967Z,4.17
2023-03-28T07:49:39.666Z,2.40
2023-03-28T07:52:07.733Z,6.33
2023-03-28T07:54:35.914Z,4.03
2023-03-28T07:57:04.382Z,4.00
2023-03-28T07:59:32.483Z,4.23
2023-03-28T08:02:02.718Z,2.53
2023-03-28T08:04:30.739Z,5.87
2023-03-28T08:07:02.454Z,2.20
2023-03-28T08:09:30.523Z,4.67
2023-03-28T08:11:58.666Z,2.83
2023-03-28T08:14:26.847Z,2.77
2023-03-28T08:16:54.728Z,6.17
2023-03-28T08:19:24.036Z,4.70
2023-03-28T08:21:51.980Z,1.63
2023-03-28T08:24:33.005Z,1.60
2023-03-28T08:27:03.869Z,3.13
2023-03-28T08:29:31.944Z,4.63
2023-03-28T08:31:59.976Z,2.70
2023-03-28T08:34:29.444Z,8.50
2023-03-28T08:36:57.695Z,3.60
2023-03-28T08:39:26.622Z,3.77
2023-03-28T08:42:13.514Z,8.53
2023-03-28T08:45:04.236Z,2.10
2023-03-28T08:47:33.098Z,9.53
2023-03-28T08:50:06.303Z,5.13
2023-03-28T08:52:34.511Z,8.23
2023-03-28T08:55:05.094Z,4.63
2023-03-28T08:57:34.328Z,6.33
2023-03-28T09:00:09.141Z,3.33
2023-03-28T09:02:37.471Z,6.53
2023-03-28T09:05:22.025Z,8.27
2023-03-28T09:07:54.741Z,6.40
2023-03-28T09:10:24.845Z,4.73
2023-03-28T09:13:00.348Z,5.90
2023-03-28T09:15:55.039Z,5.27
2023-03-28T09:18:37.282Z,9.20
2023-03-28T09:21:13.567Z,8.47
2023-03-28T09:23:59.194Z,7.70
2023-03-28T09:26:29.249Z,5.40
2023-03-28T09:28:58.473Z,4.87
2023-03-28T09:31:28.909Z,6.63
2023-03-28T09:33:58.961Z,2.77
2023-03-28T09:36:41.190Z,5.80
2023-03-28T09:39:19.601Z,7.47
2023-03-28T09:41:52.557Z,2.50
2023-03-28T09:44:21.073Z,5.97
2023-03-28T09:46:52.000Z,6.23
2023-03-28T09:49:20.992Z,11.20
2023-03-28T09:51:50.786Z,6.20
2023-03-28T09:54:20.580Z,3.23
2023-03-28T09:56:48.572Z,7.87
2023-03-28T09:59:28.204Z,5.87
2023-03-28T10:01:56.916Z,17.80
2023-03-28T10:04:33.261Z,25.70
2023-03-28T10:07:29.662Z,8.87
2023-03-28T10:09:58.465Z,6.57
2023-03-28T10:12:27.332Z,4.10
2023-03-28T10:14:55.230Z,8.13
2023-03-28T10:17:27.588Z,9.77
2023-03-28T10:19:59.627Z,5.57
2023-03-28T10:22:37.412Z,10.47
2023-03-28T10:25:05.679Z,9.80
2023-03-28T10:27:34.428Z,10.90
2023-03-28T10:30:10.076Z,6.40
2023-03-28T10:32:37.993Z,5.00
2023-03-28T10:35:09.904Z,6.23
2023-03-28T10:37:39.177Z,4.87
2023-03-28T10:40:11.220Z,7.60
2023-03-28T10:42:43.816Z,6.33
2023-03-28T10:45:23.824Z,3.63
2023-03-28T10:47:52.684Z,6.97
2023-03-28T10:50:27.634Z,8.13
2023-03-28T10:53:04.392Z,7.97
2023-03-28T10:55:36.887Z,8.77
2023-03-28T10:58:07.278Z,6.53
2023-03-28T11:00:38.380Z,9.70
2023-03-28T11:03:16.007Z,10.63
2023-03-28T11:06:01.732Z,4.93
2023-03-28T11:08:46.188Z,5.57
2023-03-28T11:11:23.856Z,10.67
2023-03-28T11:13:57.550Z,5.53
2023-03-28T11:16:32.525Z,6.47
2023-03-28T11:19:06.101Z,7.37
2023-03-28T11:21:36.559Z,3.97
2023-03-28T11:24:14.860Z,4.63
2023-03-28T11:26:47.333Z,5.50
2023-03-28T11:29:19.894Z,7.03
2023-03-28T11:31:52.400Z,6.60
2023-03-28T11:34:30.778Z,4.37
2023-03-28T11:37:01.106Z,3.73
2023-03-28T11:39:34.414Z,6.20
2023-03-28T11:42:04.855Z,6.47
2023-03-28T11:44:34.383Z,6.07
2023-03-28T11:47:04.452Z,1.47
2023-03-28T11:49:34.568Z,2.50
2023-03-28T11:52:03.992Z,5.37
2023-03-28T11:54:35.932Z,3.50
2023-03-28T11:57:06.937Z,5.77
2023-03-28T11:59:39.312Z,1.00
2023-03-28T12:02:19.379Z,2.20
2023-03-28T12:04:49.997Z,3.70
2023-03-28T12:07:19.828Z,2.60
2023-03-28T12:09:58.930Z,0.90
2023-03-28T12:12:32.814Z,1.40
2023-03-28T12:15:02.214Z,0.73
2023-03-28T12:17:31.699Z,1.40
2023-03-28T12:19:59.637Z,1.80
2023-03-28T12:22:30.440Z,2.27
2023-03-28T12:25:08.905Z,1.70
2023-03-28T12:27:43.838Z,3.30
2023-03-28T12:30:16.463Z,1.17
2023-03-28T12:32:48.327Z,1.00
2023-03-28T12:35:18.258Z,4.90
2023-03-28T12:37:55.560Z,0.77
2023-03-28T12:40:27.370Z,2.53
2023-03-28T12:42:55.843Z,0.53
2023-03-28T12:45:26.806Z,0.60
2023-03-28T12:47:55.401Z,3.33
2023-03-28T12:50:30.625Z,0.70
2023-03-28T12:52:58.819Z,1.50
2023-03-28T12:55:44.246Z,0.53
2023-03-28T12:58:36.251Z,0.90
2023-03-28T13:01:34.133Z,0.50
2023-03-28T13:04:06.344Z,0.30
2023-03-28T13:06:41.027Z,1.53
2023-03-28T13:09:44.700Z,0.50
2023-03-28T13:12:31.127Z,0.53
2023-03-28T13:15:00.113Z,0.70
2023-03-28T13:17:28.570Z,0.60
2023-03-28T13:19:56.965Z,0.60
2023-03-28T13:22:32.494Z,3.87
2023-03-28T13:25:34.088Z,0.50
2023-03-28T13:28:22.600Z,0.43
2023-03-28T13:31:09.207Z,0.50
2023-03-28T13:33:38.462Z,0.53
2023-03-28T13:36:14.534Z,1.03
2023-03-28T13:38:47.078Z,0.40
2023-03-28T13:41:30.387Z,0.67
2023-03-28T13:44:03.170Z,0.60
2023-03-28T13:46:32.277Z,0.40
2023-03-28T13:49:02.715Z,0.60
2023-03-28T13:51:31.258Z,1.40
2023-03-28T13:53:59.223Z,0.63
2023-03-28T13:56:33.191Z,0.60
2023-03-28T13:59:05.383Z,0.77
2023-03-28T14:01:38.628Z,1.23
2023-03-28T14:04:11.394Z,0.73
2023-03-28T14:06:44.078Z,1.30
2023-03-28T14:09:16.548Z,2.53
2023-03-28T14:11:44.616Z,0.83
2023-03-28T14:14:15.503Z,0.57
2023-03-28T14:16:43.685Z,0.57
2023-03-28T14:19:13.490Z,0.70
2023-03-28T14:21:41.503Z,2.87
2023-03-28T14:24:09.933Z,0.70
2023-03-28T14:26:38.076Z,0.87
2023-03-28T14:29:07.240Z,0.67
2023-03-28T14:31:38.519Z,1.80
2023-03-28T14:34:18.525Z,0.67
2023-03-28T14:36:58.706Z,1.37
2023-03-28T14:39:27.453Z,0.60
2023-03-28T14:41:55.855Z,2.70
2023-03-28T14:44:23.780Z,2.33
2023-03-28T14:46:54.237Z,0.70
2023-03-28T14:49:23.643Z,1.90
2023-03-28T14:51:54.989Z,0.53
2023-03-28T14:54:25.443Z,1.20
2023-03-28T14:56:53.978Z,1.03
2023-03-28T14:59:21.864Z,2.87
2023-03-28T15:01:51.621Z,0.87
2023-03-28T15:04:21.591Z,2.03
2023-03-28T15:06:56.081Z,1.27
2023-03-28T15:09:29.320Z,1.00
2023-03-28T15:11:57.266Z,4.00
2023-03-28T15:14:30.481Z,3.73
2023-03-28T15:16:58.587Z,7.67
2023-03-28T15:19:32.231Z,5.33
2023-03-28T15:22:01.689Z,8.80
2023-03-28T15:24:29.708Z,5.07
2023-03-28T15:26:58.472Z,10.93
2023-03-28T15:29:26.401Z,12.27
2023-03-28T15:31:54.879Z,9.90
2023-03-28T15:34:23.661Z,14.83
2023-03-28T15:36:56.028Z,13.17
2023-03-28T15:39:25.529Z,13.63
2023-03-28T15:41:55.017Z,20.07
2023-03-28T15:44:30.349Z,8.20
2023-03-28T15:47:00.276Z,19.43
2023-03-28T15:49:28.276Z,14.67
2023-03-28T15:51:59.937Z,9.87
2023-03-28T15:54:31.405Z,12.03
2023-03-28T15:57:00.899Z,9.43
2023-03-28T15:59:32.331Z,15.63
2023-03-28T16:02:37.368Z,13.07
2023-03-28T16:05:06.239Z,11.70
2023-03-28T16:07:36.751Z,18.27
2023-03-28T16:10:05.159Z,9.70
2023-03-28T16:12:33.047Z,15.83
2023-03-28T16:15:00.979Z,13.00
2023-03-28T16:17:29.851Z,17.03
2023-03-28T16:19:57.832Z,14.37
2023-03-28T16:22:25.899Z,17.10
2023-03-28T16:24:55.615Z,15.73
2023-03-28T16:27:23.492Z,15.67
2023-03-28T16:29:51.396Z,11.97
2023-03-28T16:32:19.241Z,11.70
2023-03-28T16:34:47.121Z,13.43
2023-03-28T16:37:15.089Z,18.30
2023-03-28T16:39:42.952Z,17.53
2023-03-28T16:42:12.161Z,17.60
2023-03-28T16:44:40.185Z,14.77
2023-03-28T16:47:08.042Z,20.70
2023-03-28T16:49:36.053Z,16.17
2023-03-28T16:52:04.843Z,20.67
2023-03-28T16:54:32.725Z,18.00
2023-03-28T16:57:01.098Z,12.17
2023-03-28T16:59:30.568Z,16.63
2023-03-28T17:01:58.421Z,25.50
2023-03-28T17:04:28.004Z,22.53
2023-03-28T17:06:57.719Z,19.17
2023-03-28T17:09:27.368Z,20.77
2023-03-28T17:11:55.282Z,14.50
2023-03-28T17:14:23.350Z,29.13
2023-03-28T17:16:52.827Z,21.37
2023-03-28T17:19:24.087Z,12.80
2023-03-28T17:21:52.035Z,17.80
2023-03-28T17:24:21.678Z,17.53
2023-03-28T17:26:49.632Z,20.90
2023-03-28T17:29:17.693Z,19.17
2023-03-28T17:31:45.997Z,21.73
2023-03-28T17:34:15.618Z,21.53
2023-03-28T17:36:44.343Z,28.07
2023-03-28T17:39:12.665Z,20.83
2023-03-28T17:41:41.761Z,21.30
2023-03-28T17:44:09.949Z,15.87
2023-03-28T17:46:38.715Z,20.53
2023-03-28T17:49:08.243Z,19.93
2023-03-28T17:51:37.632Z,25.50
2023-03-28T17:54:08.294Z,27.10
2023-03-28T17:56:36.821Z,26.40
2023-03-28T17:59:05.348Z,26.73
2023-03-28T18:01:33.318Z,25.83
2023-03-28T18:04:01.853Z,32.17
2023-03-28T18:06:29.884Z,17.97
2023-03-28T18:08:59.258Z,27.53
2023-03-28T18:11:27.170Z,31.20
2023-03-28T18:13:57.137Z,42.30
2023-03-28T18:16:27.813Z,39.03
2023-03-28T18:18:57.391Z,36.17
2023-03-28T18:21:25.392Z,33.30
2023-03-28T18:23:53.328Z,30.23
2023-03-28T18:26:22.623Z,45.07
2023-03-28T18:28:50.564Z,26.67
2023-03-28T18:31:19.959Z,28.53
2023-03-28T18:33:47.993Z,35.80
2023-03-28T18:36:16.113Z,34.87
2023-03-28T18:38:44.532Z,24.00
2023-03-28T18:41:12.825Z,32.43
2023-03-28T18:43:42.648Z,37.33
2023-03-28T18:46:15.491Z,31.67
2023-03-28T18:48:44.641Z,33.67
2023-03-28T18:51:13.921Z,32.10
2023-03-28T18:53:41.927Z,41.17
2023-03-28T18:56:10.219Z,38.97
2023-03-28T18:58:38.549Z,32.50
2023-03-28T19:01:09.002Z,27.93
2023-03-28T19:03:40.107Z,35.17
2023-03-28T19:06:08.750Z,43.33
2023-03-28T19:08:36.661Z,34.53
2023-03-28T19:11:08.027Z,41.40
2023-03-28T19:13:35.939Z,34.27
2023-03-28T19:16:04.881Z,44.10
2023-03-28T19:18:34.510Z,33.17
2023-03-28T19:21:02.423Z,42.70
2023-03-28T19:23:30.366Z,28.07
2023-03-28T19:25:58.455Z,30.13
2023-03-28T19:28:26.551Z,38.47
2023-03-28T19:30:58.653Z,45.50
2023-03-28T19:33:26.480Z,45.93
2023-03-28T19:35:55.811Z,54.17
2023-03-28T19:38:23.819Z,44.77
2023-03-28T19:40:57.317Z,45.10
2023-03-28T19:43:25.565Z,37.40
2023-03-28T19:45:53.473Z,35.63
2023-03-28T19:48:21.458Z,43.70
2023-03-28T19:50:49.976Z,39.20
2023-03-28T19:53:19.335Z,54.27
2023-03-28T19:55:52.268Z,68.90
2023-03-28T19:58:20.327Z,67.07
2023-03-28T20:00:48.958Z,53.43
2023-03-28T20:03:17.053Z,58.43
2023-03-28T20:05:45.422Z,52.60
2023-03-28T20:08:13.300Z,40.93
2023-03-28T20:10:42.773Z,31.60
2023-03-28T20:13:10.979Z,38.60
2023-03-28T20:15:41.240Z,29.97
2023-03-28T20:18:10.122Z,31.10
2023-03-28T20:20:39.172Z,37.20
2023-03-28T20:23:07.093Z,26.27
2023-03-28T20:25:34.988Z,31.27
2023-03-28T20:28:05.237Z,26.67
2023-03-28T20:30:33.198Z,19.83
2023-03-28T20:33:01.346Z,31.70
2023-03-28T20:35:29.640Z,31.10
2023-03-28T20:37:57.537Z,37.23
2023-03-28T20:40:25.800Z,41.87
2023-03-28T20:42:53.707Z,39.47
2023-03-28T20:45:25.913Z,46.90
2023-03-28T20:47:58.622Z,40.90
2023-03-28T20:50:33.832Z,38.30
2023-03-28T20:53:02.057Z,41.50
2023-03-28T20:55:31.231Z,38.47
2023-03-28T20:57:59.286Z,48.47
2023-03-28T21:00:30.202Z,43.50
2023-03-28T21:02:58.140Z,38.83
2023-03-28T21:05:27.481Z,30.60
2023-03-28T21:07:55.582Z,38.80
2023-03-28T21:10:23.565Z,28.17
2023-03-28T21:12:51.648Z,30.83
2023-03-28T21:15:19.713Z,22.23
2023-03-28T21:17:53.619Z,29.97
2023-03-28T21:20:21.904Z,27.00
2023-03-28T21:22:49.736Z,30.07
2023-03-28T21:25:18.549Z,20.50
2023-03-28T21:27:46.720Z,30.30
2023-03-28T21:30:14.844Z,18.43
2023-03-28T21:32:43.163Z,22.07
2023-03-28T21:35:15.286Z,30.53
2023-03-28T21:37:43.189Z,23.57
2023-03-28T21:40:11.564Z,21.87
2023-03-28T21:42:39.438Z,36.40
2023-03-28T21:45:08.230Z,37.33
2023-03-28T21:47:38.137Z,47.63
2023-03-28T21:50:07.413Z,37.80
2023-03-28T21:52:36.705Z,43.20
2023-03-28T21:55:04.753Z,49.23
2023-03-28T21:57:33.633Z,40.43
2023-03-28T22:00:01.581Z,32.70
2023-03-28T22:02:32.295Z,36.13
2023-03-28T22:05:00.194Z,23.17
2023-03-28T22:07:28.106Z,40.40
2023-03-28T22:10:01.177Z,25.20
2023-03-28T22:12:30.819Z,33.10
2023-03-28T22:14:58.974Z,39.77
2023-03-28T22:17:27.200Z,44.10
2023-03-28T22:19:55.050Z,40.07
2023-03-28T22:22:27.882Z,41.07
2023-03-28T22:24:58.564Z,38.10
2023-03-28T22:27:26.611Z,54.57
2023-03-28T22:29:54.517Z,48.60
2023-03-28T22:32:22.436Z,49.13
2023-03-28T22:34:51.112Z,50.50
2023-03-28T22:37:18.985Z,37.90
2023-03-28T22:39:47.669Z,47.03
2023-03-28T22:42:19.077Z,50.97
2023-03-28T22:44:47.561Z,40.20
2023-03-28T22:47:15.515Z,44.83
2023-03-28T22:49:43.426Z,29.00
2023-03-28T22:52:12.775Z,41.20
2023-03-28T22:54:42.658Z,33.97
2023-03-28T22:57:10.645Z,29.00
2023-03-28T22:59:40.519Z,38.50
2023-03-28T23:02:08.578Z,36.53
2023-03-28T23:04:36.593Z,22.57
2023-03-28T23:07:04.461Z,20.10
2023-03-28T23:09:33.000Z,26.13
2023-03-28T23:12:00.982Z,16.30
2023-03-28T23:14:28.840Z,19.10
2023-03-28T23:17:02.217Z,19.63
2023-03-28T23:19:31.275Z,15.53
2023-03-28T23:21:59.328Z,16.43
2023-03-28T23:24:27.641Z,25.60
2023-03-28T23:26:55.652Z,22.93
2023-03-28T23:29:23.504Z,21.13
2023-03-28T23:31:51.558Z,18.60
2023-03-28T23:34:21.061Z,22.13
2023-03-28T23:36:50.652Z,20.23
2023-03-28T23:39:18.598Z,22.03
2023-03-28T23:41:46.442Z,25.53
2023-03-28T23:44:14.283Z,26.37
2023-03-28T23:46:42.231Z,21.77
2023-03-28T23:49:10.151Z,19.57
2023-03-28T23:51:39.366Z,18.03
2023-03-28T23:54:07.338Z,21.07
2023-03-28T23:56:35.230Z,21.77
2023-03-28T23:59:03.115Z,16.83
